createdAt,value
2023-02-11T00:02:02.646Z,-15.47
2023-02-11T00:05:06.999Z,-15.47
2023-02-11T00:08:10.696Z,-15.45
2023-02-11T00:11:19.801Z,-15.33
2023-02-11T00:14:23.575Z,-15.29
2023-02-11T00:17:27.645Z,-15.23
2023-02-11T00:20:31.293Z,-15.19
2023-02-11T00:23:35.303Z,-15.18
2023-02-11T00:26:38.964Z,-15.05
2023-02-11T00:29:43.061Z,-15.04
2023-02-11T00:32:46.840Z,-15.00
2023-02-11T00:35:51.725Z,-14.93
2023-02-11T00:38:57.462Z,-14.81
2023-02-11T00:42:01.601Z,-14.74
2023-02-11T00:45:05.710Z,-14.77
2023-02-11T00:48:09.900Z,-14.53
2023-02-11T00:51:14.176Z,-14.35
2023-02-11T00:54:17.790Z,-14.11
2023-02-11T00:57:21.598Z,-13.76
2023-02-11T01:00:26.716Z,-13.44
2023-02-11T01:03:30.196Z,-13.28
2023-02-11T01:06:34.401Z,-12.97
2023-02-11T01:09:40.975Z,-12.76
2023-02-11T01:12:45.115Z,-12.39
2023-02-11T01:15:49.166Z,-12.09
2023-02-11T01:18:54.182Z,-11.72
2023-02-11T01:21:57.723Z,-11.50
2023-02-11T01:25:01.965Z,-11.33
2023-02-11T01:28:05.900Z,-10.92
2023-02-11T01:31:09.536Z,-10.73
2023-02-11T01:34:13.656Z,-10.44
2023-02-11T01:37:18.858Z,-10.38
2023-02-11T01:40:24.226Z,-10.31
2023-02-11T01:43:29.128Z,-10.20
2023-02-11T01:46:38.580Z,-9.98
2023-02-11T01:49:49.683Z,-9.54
2023-02-11T01:52:53.399Z,-9.12
2023-02-11T01:56:16.308Z,-9.00
2023-02-11T01:59:27.743Z,-9.23
2023-02-11T02:02:43.412Z,-8.87
2023-02-11T02:06:03.545Z,-8.97
2023-02-11T02:09:16.641Z,-9.07
2023-02-11T02:12:20.418Z,-8.84
2023-02-11T02:15:36.016Z,-8.05
2023-02-11T02:18:55.439Z,-7.16
2023-02-11T02:22:24.980Z,-7.18
2023-02-11T02:25:28.856Z,-7.04
2023-02-11T02:29:02.593Z,-6.85
2023-02-11T02:32:40.414Z,-6.53
2023-02-11T02:36:01.817Z,-6.22
2023-02-11T02:39:32.786Z,-5.76
2023-02-11T02:42:38.698Z,-4.86
2023-02-11T02:45:42.755Z,-4.71
2023-02-11T02:48:49.961Z,-3.86
2023-02-11T02:52:41.713Z,-4.09
2023-02-11T02:55:59.923Z,-4.09
2023-02-11T02:59:12.114Z,-2.94
2023-02-11T03:02:31.025Z,-2.68
2023-02-11T03:05:51.547Z,-2.28
2023-02-11T03:09:01.731Z,-1.99
2023-02-11T03:12:07.176Z,-1.94
2023-02-11T03:15:13.632Z,-4.61
2023-02-11T03:18:19.451Z,-6.65
2023-02-11T03:21:24.442Z,-7.35
2023-02-11T03:24:39.799Z,-7.70
2023-02-11T03:27:52.238Z,-7.99
2023-02-11T03:31:21.371Z,-8.00
2023-02-11T03:34:43.089Z,-8.18
2023-02-11T03:38:06.606Z,-8.32
2023-02-11T03:41:10.729Z,-8.61
2023-02-11T03:44:16.605Z,-8.52
2023-02-11T03:47:24.471Z,-8.68
2023-02-11T03:50:31.259Z,-8.66
2023-02-11T03:53:35.528Z,-8.60
2023-02-11T03:56:59.525Z,-8.54
2023-02-11T04:00:03.169Z,-8.48
2023-02-11T04:03:14.551Z,-8.44
2023-02-11T04:06:17.855Z,-8.48
2023-02-11T04:09:20.937Z,-8.65
2023-02-11T04:12:25.077Z,-8.67
2023-02-11T04:15:28.804Z,-8.54
2023-02-11T04:18:32.609Z,-8.41
2023-02-11T04:21:35.539Z,-8.23
2023-02-11T04:24:38.890Z,-8.33
2023-02-11T04:27:41.858Z,-8.31
2023-02-11T04:30:45.008Z,-8.26
2023-02-11T04:33:48.626Z,-8.08
2023-02-11T04:36:52.347Z,-7.95
2023-02-11T04:39:56.163Z,-7.96
2023-02-11T04:42:59.538Z,-7.81
2023-02-11T04:46:02.566Z,-7.78
2023-02-11T04:49:06.147Z,-7.62
2023-02-11T04:52:09.783Z,-7.62
2023-02-11T04:55:12.941Z,-7.60
2023-02-11T04:58:15.970Z,-7.66
2023-02-11T05:01:20.031Z,-7.40
2023-02-11T05:04:23.230Z,-7.36
2023-02-11T05:07:27.405Z,-7.09
2023-02-11T05:10:31.092Z,-7.06
2023-02-11T05:13:35.144Z,-7.09
2023-02-11T05:16:38.199Z,-6.90
2023-02-11T05:19:43.543Z,-6.76
2023-02-11T05:22:46.528Z,-6.67
2023-02-11T05:25:50.665Z,-6.58
2023-02-11T05:28:53.855Z,-6.44
2023-02-11T05:31:56.852Z,-6.26
2023-02-11T05:35:00.530Z,-6.17
2023-02-11T05:38:04.592Z,-5.98
2023-02-11T05:41:08.106Z,-5.75
2023-02-11T05:44:12.195Z,-5.66
2023-02-11T05:47:15.925Z,-5.48
2023-02-11T05:50:19.590Z,-5.34
2023-02-11T05:53:23.155Z,-5.18
2023-02-11T05:56:26.773Z,-4.95
2023-02-11T05:59:30.558Z,-4.81
2023-02-11T06:02:34.606Z,-4.66
2023-02-11T06:05:38.281Z,-2.47
2023-02-11T06:08:41.637Z,3.93
2023-02-11T06:11:45.728Z,8.12
2023-02-11T06:14:49.352Z,10.32
2023-02-11T06:17:53.120Z,11.11
2023-02-11T06:20:56.647Z,10.05
2023-02-11T06:24:00.260Z,8.84
2023-02-11T06:27:04.954Z,4.35
2023-02-11T06:30:09.481Z,2.36
2023-02-11T06:33:12.506Z,4.15
2023-02-11T06:36:19.088Z,2.72
2023-02-11T06:39:22.082Z,8.77
2023-02-11T06:42:25.804Z,8.06
2023-02-11T06:45:28.670Z,3.15
2023-02-11T06:48:31.728Z,1.13
2023-02-11T06:51:35.783Z,0.29
2023-02-11T06:54:39.629Z,0.33
2023-02-11T06:57:43.097Z,4.48
2023-02-11T07:00:46.869Z,6.45
2023-02-11T07:03:51.326Z,7.20
2023-02-11T07:06:54.211Z,7.58
2023-02-11T07:09:57.813Z,6.62
2023-02-11T07:13:01.556Z,7.35
2023-02-11T07:16:16.021Z,8.05
2023-02-11T07:19:20.016Z,2.29
2023-02-11T07:22:22.969Z,1.20
2023-02-11T07:25:26.949Z,5.70
2023-02-11T07:28:30.012Z,6.94
2023-02-11T07:31:34.461Z,7.79
2023-02-11T07:34:38.127Z,8.01
2023-02-11T07:37:42.333Z,6.78
2023-02-11T07:40:45.314Z,4.78
2023-02-11T07:43:49.085Z,4.63
2023-02-11T07:46:52.368Z,5.65
2023-02-11T07:49:56.642Z,6.37
2023-02-11T07:53:00.001Z,7.26
2023-02-11T07:56:05.223Z,8.30
2023-02-11T07:59:09.374Z,8.84
2023-02-11T08:02:12.375Z,7.86
2023-02-11T08:05:15.736Z,5.72
2023-02-11T08:08:19.295Z,6.55
2023-02-11T08:11:28.561Z,6.31
2023-02-11T08:14:33.377Z,6.24
2023-02-11T08:17:38.136Z,5.17
2023-02-11T08:20:41.475Z,4.42
2023-02-11T08:23:46.396Z,2.80
2023-02-11T08:26:50.617Z,2.03
2023-02-11T08:29:54.797Z,2.73
2023-02-11T08:32:58.144Z,1.58
2023-02-11T08:36:02.722Z,0.35
2023-02-11T08:39:18.604Z,-0.96
2023-02-11T08:42:23.652Z,-2.48
2023-02-11T08:45:27.689Z,-2.88
2023-02-11T08:48:30.926Z,-3.25
2023-02-11T08:51:34.554Z,-3.18
2023-02-11T08:54:38.408Z,-3.74
2023-02-11T08:57:41.789Z,-4.15
2023-02-11T09:00:46.081Z,-4.75
2023-02-11T09:03:49.249Z,-5.14
2023-02-11T09:06:53.059Z,-5.25
2023-02-11T09:09:56.717Z,-5.16
2023-02-11T09:13:00.738Z,-5.20
2023-02-11T09:16:06.224Z,-5.20
2023-02-11T09:19:10.903Z,-5.27
2023-02-11T09:22:14.562Z,-5.38
2023-02-11T09:25:18.354Z,-5.54
2023-02-11T09:28:22.114Z,-5.74
2023-02-11T09:31:27.802Z,-5.81
2023-02-11T09:34:31.902Z,-5.87
2023-02-11T09:37:37.263Z,-5.86
2023-02-11T09:40:45.437Z,-5.95
2023-02-11T09:43:50.103Z,-6.23
2023-02-11T09:47:00.953Z,-6.47
2023-02-11T09:50:11.237Z,-6.55
2023-02-11T09:53:17.865Z,-6.51
2023-02-11T09:56:20.837Z,-6.54
2023-02-11T09:59:24.523Z,-6.77
2023-02-11T10:02:46.967Z,-6.61
2023-02-11T10:06:28.604Z,-6.77
2023-02-11T10:09:55.778Z,-6.77
2023-02-11T10:13:10.293Z,-6.74
2023-02-11T10:16:49.398Z,-6.84
2023-02-11T10:20:18.062Z,-6.87
2023-02-11T10:23:26.221Z,-6.84
2023-02-11T10:26:32.834Z,-6.79
2023-02-11T10:29:44.940Z,-6.73
2023-02-11T10:33:09.911Z,-6.80
2023-02-11T10:36:14.067Z,-6.78
2023-02-11T10:39:24.439Z,-6.78
2023-02-11T10:42:28.780Z,-6.86
2023-02-11T10:45:39.640Z,-6.89
2023-02-11T10:48:54.404Z,-6.86
2023-02-11T10:52:20.256Z,-6.89
2023-02-11T10:55:29.249Z,-7.10
2023-02-11T10:58:37.701Z,-7.25
2023-02-11T11:01:48.301Z,-7.14
2023-02-11T11:04:58.494Z,-7.24
2023-02-11T11:08:04.741Z,-7.27
2023-02-11T11:11:17.522Z,-7.37
2023-02-11T11:14:21.225Z,-7.39
2023-02-11T11:17:24.459Z,-7.44
2023-02-11T11:20:32.601Z,-7.52
2023-02-11T11:23:38.609Z,-7.60
2023-02-11T11:26:52.979Z,-7.58
2023-02-11T11:29:57.944Z,-7.65
2023-02-11T11:33:03.302Z,-7.68
2023-02-11T11:36:13.442Z,-7.75
2023-02-11T11:39:36.826Z,-7.95
2023-02-11T11:42:41.236Z,-7.75
2023-02-11T11:45:56.425Z,-7.77
2023-02-11T11:49:18.725Z,-7.86
2023-02-11T11:52:38.988Z,-7.84
2023-02-11T11:55:47.227Z,-7.76
2023-02-11T11:58:51.214Z,-7.83
2023-02-11T12:02:46.272Z,-7.85
2023-02-11T12:06:11.131Z,-7.94
2023-02-11T12:09:41.325Z,-8.13
2023-02-11T12:12:47.620Z,-8.19
2023-02-11T12:15:59.965Z,-8.12
2023-02-11T12:19:29.781Z,-8.23
2023-02-11T12:23:03.132Z,-8.40
2023-02-11T12:26:23.578Z,-8.42
2023-02-11T12:29:50.473Z,-8.31
2023-02-11T12:33:34.067Z,-8.49
2023-02-11T12:36:46.662Z,-8.51
2023-02-11T12:39:58.913Z,-8.52
2023-02-11T12:43:30.675Z,-8.61
2023-02-11T12:46:59.082Z,-8.63
2023-02-11T12:50:05.863Z,-8.69
2023-02-11T12:53:20.490Z,-8.65
2023-02-11T12:56:45.562Z,-8.77
2023-02-11T13:00:00.682Z,-8.85
2023-02-11T13:03:14.053Z,-8.82
2023-02-11T13:06:22.162Z,-8.86
2023-02-11T13:09:31.142Z,-8.84
2023-02-11T13:12:54.397Z,-8.83
2023-02-11T13:16:10.689Z,-8.79
2023-02-11T13:19:14.065Z,-8.81
2023-02-11T13:22:27.918Z,-8.89
2023-02-11T13:25:36.862Z,-8.85
2023-02-11T13:28:50.388Z,-8.79
2023-02-11T13:32:06.663Z,-8.85
2023-02-11T13:35:30.576Z,-8.96
2023-02-11T13:38:34.827Z,-8.93
2023-02-11T13:41:42.935Z,-9.01
2023-02-11T13:44:47.244Z,-9.14
2023-02-11T13:48:01.630Z,-9.25
2023-02-11T13:51:14.155Z,-9.19
2023-02-11T13:54:40.888Z,-9.20
2023-02-11T13:57:43.945Z,-9.24
2023-02-11T14:00:51.327Z,-9.25
2023-02-11T14:04:47.365Z,-9.20
2023-02-11T14:08:28.507Z,-9.18
2023-02-11T14:11:34.944Z,-9.27
2023-02-11T14:15:02.895Z,-9.41
2023-02-11T14:18:38.345Z,-9.41
2023-02-11T14:21:44.968Z,-9.48
2023-02-11T14:24:52.044Z,-9.50
2023-02-11T14:28:05.379Z,-9.51
2023-02-11T14:31:13.490Z,-9.53
2023-02-11T14:34:52.760Z,-9.49
2023-02-11T14:38:09.144Z,-9.51
2023-02-11T14:41:29.054Z,-9.64
2023-02-11T14:44:33.879Z,-9.77
2023-02-11T14:48:03.926Z,-9.66
2023-02-11T14:51:09.985Z,-9.67
2023-02-11T14:54:20.188Z,-9.75
2023-02-11T14:57:23.995Z,-9.79
2023-02-11T15:00:28.544Z,-9.82
2023-02-11T15:03:38.320Z,-9.78
2023-02-11T15:06:46.457Z,-10.06
2023-02-11T15:09:53.493Z,-10.25
2023-02-11T15:12:57.622Z,-10.32
2023-02-11T15:16:11.658Z,-10.43
2023-02-11T15:19:27.264Z,-10.52
2023-02-11T15:22:33.935Z,-10.62
2023-02-11T15:25:46.958Z,-10.65
2023-02-11T15:28:52.714Z,-10.69
2023-02-11T15:32:10.784Z,-10.63
2023-02-11T15:35:16.919Z,-10.60
2023-02-11T15:38:20.772Z,-10.65
2023-02-11T15:41:38.469Z,-10.61
2023-02-11T15:44:42.873Z,-10.60
2023-02-11T15:47:56.249Z,-10.59
2023-02-11T15:51:04.595Z,-10.71
2023-02-11T15:54:28.142Z,-10.76
2023-02-11T15:57:32.288Z,-10.81
2023-02-11T16:00:48.040Z,-10.78
2023-02-11T16:03:53.209Z,-10.86
2023-02-11T16:06:57.441Z,-10.89
2023-02-11T16:10:01.143Z,-10.97
2023-02-11T16:13:18.990Z,-11.00
2023-02-11T16:16:32.475Z,-11.06
2023-02-11T16:19:37.020Z,-11.08
2023-02-11T16:22:40.759Z,-11.07
2023-02-11T16:25:43.812Z,-11.01
2023-02-11T16:28:48.235Z,-10.94
2023-02-11T16:31:53.189Z,-11.01
2023-02-11T16:35:00.239Z,-11.04
2023-02-11T16:38:04.075Z,-11.13
2023-02-11T16:41:08.198Z,-11.10
2023-02-11T16:44:11.300Z,-11.07
2023-02-11T16:47:26.775Z,-11.05
2023-02-11T16:50:30.536Z,-10.72
2023-02-11T16:53:34.241Z,-10.55
2023-02-11T16:56:37.592Z,-10.82
2023-02-11T16:59:40.632Z,-10.97
2023-02-11T17:02:44.996Z,-11.03
2023-02-11T17:05:55.349Z,-11.08
2023-02-11T17:09:00.053Z,-11.15
2023-02-11T17:12:03.804Z,-11.14
2023-02-11T17:15:07.728Z,-11.14
2023-02-11T17:18:13.762Z,-11.06
2023-02-11T17:21:17.284Z,-11.02
2023-02-11T17:24:22.210Z,-11.00
2023-02-11T17:27:25.473Z,-10.94
2023-02-11T17:30:28.627Z,-10.97
2023-02-11T17:33:34.525Z,-10.96
2023-02-11T17:36:39.149Z,-10.93
2023-02-11T17:39:42.269Z,-10.95
2023-02-11T17:42:45.400Z,-11.00
2023-02-11T17:45:49.050Z,-11.02
2023-02-11T17:48:53.769Z,-11.05
2023-02-11T17:51:57.747Z,-11.06
2023-02-11T17:55:01.086Z,-11.06
2023-02-11T17:58:04.171Z,-11.16
2023-02-11T18:01:07.930Z,-11.20
2023-02-11T18:04:15.436Z,-11.25
2023-02-11T18:07:20.365Z,-11.31
2023-02-11T18:10:24.052Z,-11.34
2023-02-11T18:13:29.923Z,-11.40
2023-02-11T18:16:35.564Z,-11.49
2023-02-11T18:19:40.132Z,-11.62
2023-02-11T18:22:44.744Z,-11.68
2023-02-11T18:25:48.850Z,-11.66
2023-02-11T18:28:53.251Z,-11.82
2023-02-11T18:31:58.265Z,-11.82
2023-02-11T18:35:02.051Z,-11.85
2023-02-11T18:38:05.734Z,-11.88
2023-02-11T18:41:09.053Z,-11.96
2023-02-11T18:44:14.996Z,-11.97
2023-02-11T18:47:18.166Z,-11.97
2023-02-11T18:50:23.009Z,-11.93
2023-02-11T18:53:26.814Z,-12.01
2023-02-11T18:56:30.973Z,-12.02
2023-02-11T18:59:34.027Z,-12.02
2023-02-11T19:02:37.978Z,-11.99
2023-02-11T19:05:49.923Z,-11.92
2023-02-11T19:09:00.021Z,-11.94
2023-02-11T19:12:05.213Z,-11.95
2023-02-11T19:15:09.303Z,-11.98
2023-02-11T19:18:13.811Z,-11.96
2023-02-11T19:21:17.208Z,-12.02
2023-02-11T19:24:21.930Z,-12.06
2023-02-11T19:27:24.983Z,-12.09
2023-02-11T19:30:28.824Z,-12.13
2023-02-11T19:33:32.751Z,-12.14
2023-02-11T19:36:35.808Z,-12.14
2023-02-11T19:39:43.843Z,-12.17
2023-02-11T19:42:48.458Z,-12.27
2023-02-11T19:45:51.785Z,-12.29
2023-02-11T19:48:55.756Z,-12.45
2023-02-11T19:51:59.579Z,-12.38
2023-02-11T19:55:03.387Z,-12.32
2023-02-11T19:58:06.856Z,-12.32
2023-02-11T20:01:20.426Z,-12.42
2023-02-11T20:04:25.632Z,-12.48
2023-02-11T20:07:30.526Z,-12.57
2023-02-11T20:10:35.383Z,-12.66
2023-02-11T20:13:39.902Z,-12.59
2023-02-11T20:16:49.160Z,-12.48
2023-02-11T20:19:53.057Z,-12.53
2023-02-11T20:22:56.313Z,-12.42
2023-02-11T20:25:59.310Z,-12.53
2023-02-11T20:29:05.796Z,-12.50
2023-02-11T20:32:11.185Z,-12.42
2023-02-11T20:35:14.330Z,-12.38
2023-02-11T20:38:17.699Z,-12.37
2023-02-11T20:41:26.784Z,-12.37
2023-02-11T20:44:30.231Z,-12.41
2023-02-11T20:47:33.292Z,-12.43
2023-02-11T20:50:36.460Z,-12.48
2023-02-11T20:53:44.575Z,-12.41
2023-02-11T20:56:48.618Z,-12.49
2023-02-11T20:59:52.108Z,-12.51
2023-02-11T21:02:55.136Z,-12.50
2023-02-11T21:06:01.870Z,-12.45
2023-02-11T21:09:07.519Z,-12.42
2023-02-11T21:12:11.509Z,-12.42
2023-02-11T21:15:14.872Z,-12.38
2023-02-11T21:18:17.875Z,-12.45
2023-02-11T21:21:21.137Z,-12.43
2023-02-11T21:24:24.868Z,-12.43
2023-02-11T21:27:33.555Z,-12.50
2023-02-11T21:30:39.558Z,-12.48
2023-02-11T21:33:42.502Z,-12.55
2023-02-11T21:36:46.288Z,-12.55
2023-02-11T21:39:50.489Z,-12.57
2023-02-11T21:42:54.584Z,-12.54
2023-02-11T21:45:58.774Z,-12.54
2023-02-11T21:49:01.766Z,-12.51
2023-02-11T21:52:05.190Z,-12.48
2023-02-11T21:55:08.407Z,-12.50
2023-02-11T21:58:13.998Z,-12.51
2023-02-11T22:01:23.379Z,-12.46
2023-02-11T22:04:27.356Z,-12.56
2023-02-11T22:07:31.234Z,-12.72
2023-02-11T22:10:35.334Z,-12.68
2023-02-11T22:13:39.569Z,-12.72
2023-02-11T22:16:46.153Z,-12.66
2023-02-11T22:19:50.480Z,-12.70
2023-02-11T22:22:54.538Z,-12.66
2023-02-11T22:25:59.020Z,-12.68
2023-02-11T22:29:02.798Z,-12.71
2023-02-11T22:32:07.392Z,-12.63
2023-02-11T22:35:11.862Z,-12.59
2023-02-11T22:38:15.704Z,-12.70
2023-02-11T22:41:20.570Z,-12.80
2023-02-11T22:44:25.477Z,-12.77
2023-02-11T22:47:29.086Z,-12.77
2023-02-11T22:50:32.157Z,-12.87
2023-02-11T22:53:36.294Z,-12.84
2023-02-11T22:56:41.028Z,-12.87
2023-02-11T22:59:44.914Z,-13.01
2023-02-11T23:02:48.076Z,-13.06
2023-02-11T23:05:51.957Z,-13.08
2023-02-11T23:08:56.651Z,-13.04
2023-02-11T23:12:00.409Z,-12.99
2023-02-11T23:15:05.127Z,-13.00
2023-02-11T23:18:10.352Z,-12.93
2023-02-11T23:21:19.984Z,-13.00
2023-02-11T23:24:23.021Z,-12.94
2023-02-11T23:27:26.072Z,-12.96
2023-02-11T23:30:29.708Z,-12.94
2023-02-11T23:33:33.446Z,-12.96
2023-02-11T23:36:37.265Z,-12.99
2023-02-11T23:39:40.640Z,-13.00
2023-02-11T23:42:43.923Z,-13.07
2023-02-11T23:45:48.820Z,-13.05
2023-02-11T23:48:52.384Z,-12.96
2023-02-11T23:51:56.619Z,-12.92
2023-02-11T23:55:00.444Z,-12.87
2023-02-11T23:58:03.787Z,-13.05
